sensor_id;sensor_type;location;lat;lon;timestamp;P1;durP1;ratioP1;P2;durP2;ratioP2
70444;SDS011;57902;49.638;11.070;2022-10-16T00:00:34;3.90;;;1.10;;
70444;SDS011;57902;49.638;11.070;2022-10-16T00:03:02;6.32;;;1.35;;
70444;SDS011;57902;49.638;11.070;2022-10-16T00:05:29;4.40;;;1.20;;
70444;SDS011;57902;49.638;11.070;2022-10-16T00:07:56;2.78;;;1.20;;
70444;SDS011;57902;49.638;11.070;2022-10-16T00:10:22;5.00;;;1.30;;
70444;SDS011;57902;49.638;11.070;2022-10-16T00:12:49;5.68;;;1.40;;
70444;SDS011;57902;49.638;11.070;2022-10-16T00:15:15;2.58;;;1.17;;
70444;SDS011;57902;49.638;11.070;2022-10-16T00:17:42;4.25;;;1.20;;
70444;SDS011;57902;49.638;11.070;2022-10-16T00:20:08;2.47;;;1.15;;
70444;SDS011;57902;49.638;11.070;2022-10-16T00:22:35;2.13;;;1.10;;
70444;SDS011;57902;49.638;11.070;2022-10-16T00:25:01;3.42;;;1.10;;
70444;SDS011;57902;49.638;11.070;2022-10-16T00:27:28;3.28;;;1.05;;
70444;SDS011;57902;49.638;11.070;2022-10-16T00:29:54;6.30;;;1.30;;
70444;SDS011;57902;49.638;11.070;2022-10-16T00:32:21;6.32;;;1.20;;
70444;SDS011;57902;49.638;11.070;2022-10-16T00:34:48;3.55;;;1.20;;
70444;SDS011;57902;49.638;11.070;2022-10-16T00:37:14;5.15;;;1.15;;
70444;SDS011;57902;49.638;11.070;2022-10-16T00:39:41;4.15;;;1.15;;
70444;SDS011;57902;49.638;11.070;2022-10-16T00:42:10;11.38;;;1.65;;
70444;SDS011;57902;49.638;11.070;2022-10-16T00:47:27;2.30;;;1.08;;
70444;SDS011;57902;49.638;11.070;2022-10-16T00:50:10;7.72;;;1.30;;
70444;SDS011;57902;49.638;11.070;2022-10-16T00:52:43;4.10;;;1.30;;
70444;SDS011;57902;49.638;11.070;2022-10-16T00:55:12;3.60;;;1.20;;
70444;SDS011;57902;49.638;11.070;2022-10-16T00:57:40;3.47;;;1.10;;
70444;SDS011;57902;49.638;11.070;2022-10-16T01:00:09;7.22;;;1.23;;
70444;SDS011;57902;49.638;11.070;2022-10-16T01:02:37;3.03;;;1.30;;
70444;SDS011;57902;49.638;11.070;2022-10-16T01:05:03;6.82;;;1.63;;
70444;SDS011;57902;49.638;11.070;2022-10-16T01:13:05;5.32;;;1.33;;
70444;SDS011;57902;49.638;11.070;2022-10-16T01:15:35;3.47;;;1.20;;
70444;SDS011;57902;49.638;11.070;2022-10-16T01:18:11;3.45;;;1.00;;
70444;SDS011;57902;49.638;11.070;2022-10-16T01:21:05;4.22;;;2.50;;
70444;SDS011;57902;49.638;11.070;2022-10-16T01:29:25;3.78;;;1.05;;
70444;SDS011;57902;49.638;11.070;2022-10-16T01:31:57;6.55;;;1.60;;
70444;SDS011;57902;49.638;11.070;2022-10-16T01:34:37;6.43;;;1.30;;
70444;SDS011;57902;49.638;11.070;2022-10-16T01:37:09;4.30;;;1.20;;
70444;SDS011;57902;49.638;11.070;2022-10-16T01:39:41;3.53;;;1.30;;
70444;SDS011;57902;49.638;11.070;2022-10-16T01:42:12;3.33;;;1.45;;
70444;SDS011;57902;49.638;11.070;2022-10-16T01:44:43;3.20;;;1.10;;
70444;SDS011;57902;49.638;11.070;2022-10-16T01:47:10;2.78;;;1.10;;
70444;SDS011;57902;49.638;11.070;2022-10-16T01:49:39;2.97;;;1.20;;
70444;SDS011;57902;49.638;11.070;2022-10-16T01:52:16;3.95;;;1.35;;
70444;SDS011;57902;49.638;11.070;2022-10-16T01:54:47;3.75;;;1.40;;
70444;SDS011;57902;49.638;11.070;2022-10-16T01:57:16;5.78;;;1.20;;
70444;SDS011;57902;49.638;11.070;2022-10-16T01:59:44;4.32;;;1.40;;
70444;SDS011;57902;49.638;11.070;2022-10-16T02:02:15;6.28;;;1.40;;
70444;SDS011;57902;49.638;11.070;2022-10-16T02:04:46;2.78;;;1.25;;
70444;SDS011;57902;49.638;11.070;2022-10-16T02:07:15;2.75;;;1.25;;
70444;SDS011;57902;49.638;11.070;2022-10-16T02:09:42;3.45;;;1.40;;
70444;SDS011;57902;49.638;11.070;2022-10-16T02:12:14;4.60;;;1.40;;
70444;SDS011;57902;49.638;11.070;2022-10-16T02:14:45;5.60;;;1.35;;
70444;SDS011;57902;49.638;11.070;2022-10-16T02:17:12;8.13;;;1.25;;
70444;SDS011;57902;49.638;11.070;2022-10-16T02:19:41;3.35;;;1.40;;
70444;SDS011;57902;49.638;11.070;2022-10-16T02:22:08;4.88;;;1.50;;
70444;SDS011;57902;49.638;11.070;2022-10-16T02:24:39;4.28;;;1.30;;
70444;SDS011;57902;49.638;11.070;2022-10-16T02:30:07;3.80;;;1.40;;
70444;SDS011;57902;49.638;11.070;2022-10-16T02:32:39;4.13;;;1.40;;
70444;SDS011;57902;49.638;11.070;2022-10-16T02:35:10;3.15;;;1.50;;
70444;SDS011;57902;49.638;11.070;2022-10-16T02:37:39;8.65;;;1.67;;
70444;SDS011;57902;49.638;11.070;2022-10-16T02:40:07;4.60;;;1.38;;
70444;SDS011;57902;49.638;11.070;2022-10-16T02:42:35;7.18;;;1.67;;
70444;SDS011;57902;49.638;11.070;2022-10-16T02:45:03;5.88;;;1.40;;
70444;SDS011;57902;49.638;11.070;2022-10-16T02:47:31;4.47;;;1.50;;
70444;SDS011;57902;49.638;11.070;2022-10-16T02:49:57;3.88;;;1.30;;
70444;SDS011;57902;49.638;11.070;2022-10-16T02:52:24;9.93;;;1.30;;
70444;SDS011;57902;49.638;11.070;2022-10-16T02:54:51;6.10;;;1.40;;
70444;SDS011;57902;49.638;11.070;2022-10-16T02:57:17;5.28;;;1.33;;
70444;SDS011;57902;49.638;11.070;2022-10-16T02:59:44;3.10;;;1.45;;
70444;SDS011;57902;49.638;11.070;2022-10-16T03:02:11;3.95;;;1.60;;
70444;SDS011;57902;49.638;11.070;2022-10-16T03:04:38;31.50;;;2.78;;
70444;SDS011;57902;49.638;11.070;2022-10-16T03:07:04;4.40;;;1.30;;
70444;SDS011;57902;49.638;11.070;2022-10-16T03:09:31;3.88;;;1.38;;
70444;SDS011;57902;49.638;11.070;2022-10-16T03:11:57;3.88;;;1.40;;
70444;SDS011;57902;49.638;11.070;2022-10-16T03:14:24;2.45;;;1.10;;
70444;SDS011;57902;49.638;11.070;2022-10-16T03:16:50;4.82;;;1.45;;
70444;SDS011;57902;49.638;11.070;2022-10-16T03:19:17;3.35;;;1.25;;
70444;SDS011;57902;49.638;11.070;2022-10-16T03:21:44;3.45;;;1.48;;
70444;SDS011;57902;49.638;11.070;2022-10-16T03:24:11;3.08;;;1.40;;
70444;SDS011;57902;49.638;11.070;2022-10-16T03:26:38;2.97;;;1.50;;
70444;SDS011;57902;49.638;11.070;2022-10-16T03:29:04;3.83;;;1.30;;
70444;SDS011;57902;49.638;11.070;2022-10-16T03:31:31;4.13;;;1.30;;
70444;SDS011;57902;49.638;11.070;2022-10-16T03:33:57;6.03;;;1.30;;
70444;SDS011;57902;49.638;11.070;2022-10-16T03:36:24;6.55;;;1.17;;
70444;SDS011;57902;49.638;11.070;2022-10-16T03:38:51;7.10;;;1.35;;
70444;SDS011;57902;49.638;11.070;2022-10-16T03:41:17;4.47;;;1.08;;
70444;SDS011;57902;49.638;11.070;2022-10-16T03:43:44;2.10;;;1.25;;
70444;SDS011;57902;49.638;11.070;2022-10-16T03:46:10;2.45;;;1.42;;
70444;SDS011;57902;49.638;11.070;2022-10-16T03:48:37;3.70;;;1.30;;
70444;SDS011;57902;49.638;11.070;2022-10-16T03:51:03;7.20;;;1.55;;
70444;SDS011;57902;49.638;11.070;2022-10-16T03:53:30;3.53;;;1.30;;
70444;SDS011;57902;49.638;11.070;2022-10-16T03:55:56;5.15;;;1.40;;
70444;SDS011;57902;49.638;11.070;2022-10-16T03:58:23;6.05;;;1.40;;
70444;SDS011;57902;49.638;11.070;2022-10-16T04:00:49;4.35;;;1.30;;
70444;SDS011;57902;49.638;11.070;2022-10-16T04:03:16;5.03;;;1.30;;
70444;SDS011;57902;49.638;11.070;2022-10-16T04:05:44;5.95;;;1.27;;
70444;SDS011;57902;49.638;11.070;2022-10-16T04:08:11;3.67;;;1.40;;
70444;SDS011;57902;49.638;11.070;2022-10-16T04:10:37;3.63;;;1.20;;
70444;SDS011;57902;49.638;11.070;2022-10-16T04:13:04;4.57;;;1.20;;
70444;SDS011;57902;49.638;11.070;2022-10-16T04:15:30;4.50;;;1.23;;
70444;SDS011;57902;49.638;11.070;2022-10-16T04:17:57;2.85;;;1.13;;
70444;SDS011;57902;49.638;11.070;2022-10-16T04:20:23;3.70;;;1.10;;
70444;SDS011;57902;49.638;11.070;2022-10-16T04:22:50;2.67;;;1.13;;
70444;SDS011;57902;49.638;11.070;2022-10-16T04:25:16;4.88;;;1.10;;
70444;SDS011;57902;49.638;11.070;2022-10-16T04:27:43;3.40;;;1.30;;
70444;SDS011;57902;49.638;11.070;2022-10-16T04:30:11;4.13;;;1.63;;
70444;SDS011;57902;49.638;11.070;2022-10-16T04:32:38;3.67;;;1.13;;
70444;SDS011;57902;49.638;11.070;2022-10-16T04:35:05;5.60;;;1.30;;
70444;SDS011;57902;49.638;11.070;2022-10-16T04:37:31;7.43;;;1.60;;
70444;SDS011;57902;49.638;11.070;2022-10-16T04:39:58;3.35;;;1.10;;
70444;SDS011;57902;49.638;11.070;2022-10-16T04:42:24;2.80;;;1.20;;
70444;SDS011;57902;49.638;11.070;2022-10-16T04:44:51;7.35;;;1.40;;
70444;SDS011;57902;49.638;11.070;2022-10-16T04:47:17;2.45;;;1.20;;
70444;SDS011;57902;49.638;11.070;2022-10-16T04:49:44;5.53;;;1.30;;
70444;SDS011;57902;49.638;11.070;2022-10-16T04:52:10;4.10;;;1.30;;
70444;SDS011;57902;49.638;11.070;2022-10-16T04:54:37;6.25;;;1.58;;
70444;SDS011;57902;49.638;11.070;2022-10-16T04:57:03;3.70;;;1.50;;
70444;SDS011;57902;49.638;11.070;2022-10-16T04:59:31;5.55;;;1.55;;
70444;SDS011;57902;49.638;11.070;2022-10-16T05:01:57;6.45;;;1.48;;
70444;SDS011;57902;49.638;11.070;2022-10-16T05:04:23;4.50;;;1.60;;
70444;SDS011;57902;49.638;11.070;2022-10-16T05:06:50;4.95;;;1.63;;
70444;SDS011;57902;49.638;11.070;2022-10-16T05:09:16;4.28;;;1.50;;
70444;SDS011;57902;49.638;11.070;2022-10-16T05:11:43;7.60;;;2.40;;
70444;SDS011;57902;49.638;11.070;2022-10-16T05:14:09;7.38;;;2.75;;
70444;SDS011;57902;49.638;11.070;2022-10-16T05:16:35;4.90;;;1.60;;
70444;SDS011;57902;49.638;11.070;2022-10-16T05:19:02;5.38;;;1.80;;
70444;SDS011;57902;49.638;11.070;2022-10-16T05:21:48;7.38;;;1.80;;
70444;SDS011;57902;49.638;11.070;2022-10-16T05:24:15;5.65;;;1.48;;
70444;SDS011;57902;49.638;11.070;2022-10-16T05:26:42;6.15;;;2.30;;
70444;SDS011;57902;49.638;11.070;2022-10-16T05:29:08;4.97;;;1.50;;
70444;SDS011;57902;49.638;11.070;2022-10-16T05:31:35;4.25;;;1.50;;
70444;SDS011;57902;49.638;11.070;2022-10-16T05:34:02;4.53;;;1.40;;
70444;SDS011;57902;49.638;11.070;2022-10-16T05:36:28;2.85;;;1.30;;
70444;SDS011;57902;49.638;11.070;2022-10-16T05:38:55;4.30;;;1.30;;
70444;SDS011;57902;49.638;11.070;2022-10-16T05:41:21;4.47;;;1.38;;
70444;SDS011;57902;49.638;11.070;2022-10-16T05:43:49;6.68;;;1.60;;
70444;SDS011;57902;49.638;11.070;2022-10-16T05:46:16;2.53;;;1.50;;
70444;SDS011;57902;49.638;11.070;2022-10-16T05:48:43;4.72;;;1.50;;
70444;SDS011;57902;49.638;11.070;2022-10-16T05:51:10;5.35;;;1.70;;
70444;SDS011;57902;49.638;11.070;2022-10-16T05:53:39;7.43;;;1.70;;
70444;SDS011;57902;49.638;11.070;2022-10-16T05:56:07;3.90;;;1.15;;
70444;SDS011;57902;49.638;11.070;2022-10-16T05:58:36;3.20;;;1.27;;
70444;SDS011;57902;49.638;11.070;2022-10-16T06:01:09;9.35;;;1.70;;
70444;SDS011;57902;49.638;11.070;2022-10-16T06:03:38;5.78;;;1.85;;
70444;SDS011;57902;49.638;11.070;2022-10-16T06:06:15;3.25;;;1.08;;
70444;SDS011;57902;49.638;11.070;2022-10-16T06:08:43;3.20;;;1.20;;
70444;SDS011;57902;49.638;11.070;2022-10-16T06:11:12;2.92;;;1.27;;
70444;SDS011;57902;49.638;11.070;2022-10-16T06:13:43;2.90;;;1.27;;
70444;SDS011;57902;49.638;11.070;2022-10-16T06:16:12;4.78;;;1.50;;
70444;SDS011;57902;49.638;11.070;2022-10-16T06:18:39;2.80;;;1.38;;
70444;SDS011;57902;49.638;11.070;2022-10-16T06:21:09;6.32;;;1.60;;
70444;SDS011;57902;49.638;11.070;2022-10-16T06:23:38;4.20;;;1.60;;
70444;SDS011;57902;49.638;11.070;2022-10-16T06:26:08;3.78;;;1.42;;
70444;SDS011;57902;49.638;11.070;2022-10-16T06:28:36;9.43;;;1.40;;
70444;SDS011;57902;49.638;11.070;2022-10-16T06:31:04;5.20;;;1.25;;
70444;SDS011;57902;49.638;11.070;2022-10-16T06:33:33;5.50;;;1.33;;
70444;SDS011;57902;49.638;11.070;2022-10-16T06:36:05;4.45;;;1.30;;
70444;SDS011;57902;49.638;11.070;2022-10-16T06:38:32;2.58;;;1.15;;
70444;SDS011;57902;49.638;11.070;2022-10-16T06:40:59;3.22;;;1.52;;
70444;SDS011;57902;49.638;11.070;2022-10-16T06:43:27;5.97;;;1.60;;
70444;SDS011;57902;49.638;11.070;2022-10-16T06:45:58;6.85;;;1.58;;
70444;SDS011;57902;49.638;11.070;2022-10-16T06:48:25;7.10;;;1.90;;
70444;SDS011;57902;49.638;11.070;2022-10-16T06:53:26;4.65;;;1.60;;
70444;SDS011;57902;49.638;11.070;2022-10-16T06:55:54;11.25;;;2.25;;
70444;SDS011;57902;49.638;11.070;2022-10-16T06:58:21;4.18;;;1.50;;
70444;SDS011;57902;49.638;11.070;2022-10-16T07:00:49;9.93;;;2.80;;
70444;SDS011;57902;49.638;11.070;2022-10-16T07:03:20;10.20;;;3.50;;
70444;SDS011;57902;49.638;11.070;2022-10-16T07:05:47;9.30;;;3.40;;
70444;SDS011;57902;49.638;11.070;2022-10-16T07:08:13;7.80;;;3.10;;
70444;SDS011;57902;49.638;11.070;2022-10-16T07:10:40;5.50;;;2.22;;
70444;SDS011;57902;49.638;11.070;2022-10-16T07:13:06;4.00;;;1.45;;
70444;SDS011;57902;49.638;11.070;2022-10-16T07:15:33;7.75;;;1.50;;
70444;SDS011;57902;49.638;11.070;2022-10-16T07:18:00;2.97;;;1.25;;
70444;SDS011;57902;49.638;11.070;2022-10-16T07:20:26;6.95;;;1.70;;
70444;SDS011;57902;49.638;11.070;2022-10-16T07:22:53;5.95;;;1.60;;
70444;SDS011;57902;49.638;11.070;2022-10-16T07:25:19;5.20;;;1.80;;
70444;SDS011;57902;49.638;11.070;2022-10-16T07:27:46;5.38;;;1.77;;
70444;SDS011;57902;49.638;11.070;2022-10-16T07:30:12;6.53;;;1.75;;
70444;SDS011;57902;49.638;11.070;2022-10-16T07:32:39;7.15;;;1.95;;
70444;SDS011;57902;49.638;11.070;2022-10-16T07:35:05;5.45;;;1.80;;
70444;SDS011;57902;49.638;11.070;2022-10-16T07:37:32;3.70;;;1.50;;
70444;SDS011;57902;49.638;11.070;2022-10-16T07:39:59;4.72;;;1.33;;
70444;SDS011;57902;49.638;11.070;2022-10-16T07:42:26;8.95;;;1.45;;
70444;SDS011;57902;49.638;11.070;2022-10-16T07:44:53;5.00;;;1.60;;
70444;SDS011;57902;49.638;11.070;2022-10-16T07:47:19;5.70;;;1.40;;
70444;SDS011;57902;49.638;11.070;2022-10-16T07:49:46;3.95;;;1.48;;
70444;SDS011;57902;49.638;11.070;2022-10-16T07:52:13;4.63;;;1.70;;
70444;SDS011;57902;49.638;11.070;2022-10-16T07:54:39;4.28;;;1.67;;
70444;SDS011;57902;49.638;11.070;2022-10-16T07:57:06;6.90;;;1.58;;
70444;SDS011;57902;49.638;11.070;2022-10-16T07:59:32;3.10;;;1.40;;
70444;SDS011;57902;49.638;11.070;2022-10-16T08:01:59;6.60;;;1.58;;
70444;SDS011;57902;49.638;11.070;2022-10-16T08:04:25;5.93;;;1.63;;
70444;SDS011;57902;49.638;11.070;2022-10-16T08:06:52;4.35;;;1.42;;
70444;SDS011;57902;49.638;11.070;2022-10-16T08:09:20;3.35;;;1.50;;
70444;SDS011;57902;49.638;11.070;2022-10-16T08:11:46;5.47;;;1.90;;
70444;SDS011;57902;49.638;11.070;2022-10-16T08:14:13;6.18;;;1.65;;
70444;SDS011;57902;49.638;11.070;2022-10-16T08:16:39;6.88;;;1.40;;
70444;SDS011;57902;49.638;11.070;2022-10-16T08:19:06;6.93;;;1.55;;
70444;SDS011;57902;49.638;11.070;2022-10-16T08:21:32;2.85;;;1.45;;
70444;SDS011;57902;49.638;11.070;2022-10-16T08:23:59;4.88;;;1.60;;
70444;SDS011;57902;49.638;11.070;2022-10-16T08:26:26;4.05;;;1.50;;
70444;SDS011;57902;49.638;11.070;2022-10-16T08:28:53;3.67;;;1.42;;
70444;SDS011;57902;49.638;11.070;2022-10-16T08:31:20;4.65;;;1.52;;
70444;SDS011;57902;49.638;11.070;2022-10-16T08:33:47;5.38;;;1.63;;
70444;SDS011;57902;49.638;11.070;2022-10-16T08:36:14;5.40;;;1.65;;
70444;SDS011;57902;49.638;11.070;2022-10-16T08:38:42;4.28;;;1.52;;
70444;SDS011;57902;49.638;11.070;2022-10-16T08:46:54;3.90;;;1.85;;
70444;SDS011;57902;49.638;11.070;2022-10-16T08:49:30;5.22;;;1.70;;
70444;SDS011;57902;49.638;11.070;2022-10-16T08:51:57;6.25;;;1.70;;
70444;SDS011;57902;49.638;11.070;2022-10-16T08:54:31;8.43;;;1.55;;
70444;SDS011;57902;49.638;11.070;2022-10-16T08:57:09;6.70;;;1.85;;
70444;SDS011;57902;49.638;11.070;2022-10-16T08:59:38;2.63;;;1.20;;
70444;SDS011;57902;49.638;11.070;2022-10-16T09:02:15;4.68;;;2.00;;
70444;SDS011;57902;49.638;11.070;2022-10-16T09:04:54;6.35;;;2.22;;
70444;SDS011;57902;49.638;11.070;2022-10-16T09:23:44;10.18;;;1.63;;
70444;SDS011;57902;49.638;11.070;2022-10-16T09:26:12;4.70;;;1.60;;
70444;SDS011;57902;49.638;11.070;2022-10-16T09:28:40;5.57;;;1.23;;
70444;SDS011;57902;49.638;11.070;2022-10-16T09:31:13;3.03;;;1.40;;
70444;SDS011;57902;49.638;11.070;2022-10-16T09:33:45;6.40;;;1.60;;
70444;SDS011;57902;49.638;11.070;2022-10-16T09:36:16;4.78;;;1.52;;
70444;SDS011;57902;49.638;11.070;2022-10-16T09:38:43;4.00;;;1.50;;
70444;SDS011;57902;49.638;11.070;2022-10-16T09:43:46;4.50;;;1.40;;
70444;SDS011;57902;49.638;11.070;2022-10-16T09:49:25;5.57;;;1.58;;
70444;SDS011;57902;49.638;11.070;2022-10-16T09:52:06;13.25;;;1.70;;
70444;SDS011;57902;49.638;11.070;2022-10-16T09:54:48;5.53;;;1.63;;
70444;SDS011;57902;49.638;11.070;2022-10-16T09:57:16;4.03;;;1.70;;
70444;SDS011;57902;49.638;11.070;2022-10-16T09:59:46;7.43;;;1.48;;
70444;SDS011;57902;49.638;11.070;2022-10-16T10:04:56;3.95;;;1.33;;
70444;SDS011;57902;49.638;11.070;2022-10-16T10:07:24;3.75;;;1.60;;
70444;SDS011;57902;49.638;11.070;2022-10-16T10:09:54;9.40;;;1.48;;
70444;SDS011;57902;49.638;11.070;2022-10-16T10:12:23;44.45;;;3.50;;
70444;SDS011;57902;49.638;11.070;2022-10-16T10:14:56;7.03;;;1.50;;
70444;SDS011;57902;49.638;11.070;2022-10-16T10:17:24;7.97;;;1.65;;
70444;SDS011;57902;49.638;11.070;2022-10-16T10:19:56;3.47;;;1.60;;
70444;SDS011;57902;49.638;11.070;2022-10-16T10:22:28;7.63;;;1.40;;
70444;SDS011;57902;49.638;11.070;2022-10-16T10:25:12;12.00;;;1.63;;
70444;SDS011;57902;49.638;11.070;2022-10-16T10:35:51;6.45;;;1.30;;
70444;SDS011;57902;49.638;11.070;2022-10-16T10:55:33;5.80;;;1.50;;
70444;SDS011;57902;49.638;11.070;2022-10-16T10:58:08;4.95;;;1.50;;
70444;SDS011;57902;49.638;11.070;2022-10-16T11:03:35;4.15;;;1.40;;
70444;SDS011;57902;49.638;11.070;2022-10-16T11:06:36;4.63;;;1.23;;
70444;SDS011;57902;49.638;11.070;2022-10-16T11:09:18;7.32;;;1.40;;
70444;SDS011;57902;49.638;11.070;2022-10-16T11:11:56;8.25;;;1.60;;
70444;SDS011;57902;49.638;11.070;2022-10-16T11:16:59;5.13;;;1.48;;
70444;SDS011;57902;49.638;11.070;2022-10-16T11:24:48;10.02;;;1.92;;
70444;SDS011;57902;49.638;11.070;2022-10-16T11:27:23;12.25;;;1.70;;
70444;SDS011;57902;49.638;11.070;2022-10-16T11:29:59;8.43;;;1.20;;
70444;SDS011;57902;49.638;11.070;2022-10-16T11:32:35;6.35;;;1.40;;
70444;SDS011;57902;49.638;11.070;2022-10-16T11:35:21;15.25;;;2.45;;
70444;SDS011;57902;49.638;11.070;2022-10-16T11:37:58;6.90;;;1.70;;
70444;SDS011;57902;49.638;11.070;2022-10-16T11:40:29;4.38;;;1.40;;
70444;SDS011;57902;49.638;11.070;2022-10-16T11:43:10;6.97;;;1.50;;
70444;SDS011;57902;49.638;11.070;2022-10-16T11:45:42;3.28;;;1.30;;
70444;SDS011;57902;49.638;11.070;2022-10-16T11:51:39;7.57;;;1.63;;
70444;SDS011;57902;49.638;11.070;2022-10-16T11:54:24;8.73;;;1.50;;
70444;SDS011;57902;49.638;11.070;2022-10-16T11:57:00;5.38;;;1.58;;
70444;SDS011;57902;49.638;11.070;2022-10-16T11:59:37;4.43;;;1.50;;
70444;SDS011;57902;49.638;11.070;2022-10-16T12:05:57;7.55;;;1.70;;
70444;SDS011;57902;49.638;11.070;2022-10-16T12:08:13;5.25;;;1.40;;
70444;SDS011;57902;49.638;11.070;2022-10-16T12:10:43;3.88;;;1.30;;
70444;SDS011;57902;49.638;11.070;2022-10-16T12:16:06;6.72;;;1.48;;
70444;SDS011;57902;49.638;11.070;2022-10-16T12:18:39;4.57;;;1.63;;
70444;SDS011;57902;49.638;11.070;2022-10-16T12:21:07;9.40;;;1.52;;
70444;SDS011;57902;49.638;11.070;2022-10-16T12:23:38;3.97;;;1.27;;
70444;SDS011;57902;49.638;11.070;2022-10-16T12:26:13;6.38;;;1.58;;
70444;SDS011;57902;49.638;11.070;2022-10-16T12:28:39;8.02;;;1.48;;
70444;SDS011;57902;49.638;11.070;2022-10-16T12:31:07;5.13;;;1.55;;
70444;SDS011;57902;49.638;11.070;2022-10-16T12:33:36;6.57;;;1.83;;
70444;SDS011;57902;49.638;11.070;2022-10-16T12:36:16;4.43;;;1.60;;
70444;SDS011;57902;49.638;11.070;2022-10-16T12:39:01;4.07;;;1.50;;
70444;SDS011;57902;49.638;11.070;2022-10-16T12:41:29;7.03;;;1.70;;
70444;SDS011;57902;49.638;11.070;2022-10-16T12:44:01;7.57;;;1.50;;
70444;SDS011;57902;49.638;11.070;2022-10-16T12:49:04;6.13;;;1.52;;
70444;SDS011;57902;49.638;11.070;2022-10-16T13:04:20;6.00;;;1.80;;
70444;SDS011;57902;49.638;11.070;2022-10-16T13:07:02;5.03;;;1.60;;
70444;SDS011;57902;49.638;11.070;2022-10-16T13:09:33;4.30;;;1.60;;
70444;SDS011;57902;49.638;11.070;2022-10-16T13:12:17;6.95;;;1.70;;
70444;SDS011;57902;49.638;11.070;2022-10-16T13:15:28;7.75;;;2.05;;
70444;SDS011;57902;49.638;11.070;2022-10-16T13:18:09;4.70;;;1.80;;
70444;SDS011;57902;49.638;11.070;2022-10-16T13:23:51;5.47;;;1.90;;
70444;SDS011;57902;49.638;11.070;2022-10-16T13:29:28;8.02;;;4.07;;
70444;SDS011;57902;49.638;11.070;2022-10-16T13:31:57;7.38;;;2.80;;
70444;SDS011;57902;49.638;11.070;2022-10-16T13:34:24;8.75;;;3.03;;
70444;SDS011;57902;49.638;11.070;2022-10-16T13:36:52;6.88;;;2.20;;
70444;SDS011;57902;49.638;11.070;2022-10-16T13:39:21;5.63;;;1.80;;
70444;SDS011;57902;49.638;11.070;2022-10-16T13:42:01;7.68;;;1.95;;
70444;SDS011;57902;49.638;11.070;2022-10-16T13:44:44;4.65;;;1.88;;
70444;SDS011;57902;49.638;11.070;2022-10-16T13:47:22;3.67;;;1.80;;
70444;SDS011;57902;49.638;11.070;2022-10-16T13:50:00;5.97;;;1.60;;
70444;SDS011;57902;49.638;11.070;2022-10-16T13:52:30;4.15;;;1.70;;
70444;SDS011;57902;49.638;11.070;2022-10-16T13:54:57;4.68;;;1.60;;
70444;SDS011;57902;49.638;11.070;2022-10-16T13:57:27;5.88;;;1.92;;
70444;SDS011;57902;49.638;11.070;2022-10-16T13:59:54;4.78;;;1.60;;
70444;SDS011;57902;49.638;11.070;2022-10-16T14:02:34;10.13;;;1.70;;
70444;SDS011;57902;49.638;11.070;2022-10-16T14:05:04;5.32;;;1.77;;
70444;SDS011;57902;49.638;11.070;2022-10-16T14:07:36;4.78;;;1.67;;
70444;SDS011;57902;49.638;11.070;2022-10-16T14:10:04;4.55;;;1.50;;
70444;SDS011;57902;49.638;11.070;2022-10-16T14:12:33;6.00;;;1.50;;
70444;SDS011;57902;49.638;11.070;2022-10-16T14:15:00;3.88;;;1.40;;
70444;SDS011;57902;49.638;11.070;2022-10-16T14:17:28;6.28;;;1.63;;
70444;SDS011;57902;49.638;11.070;2022-10-16T14:19:58;3.95;;;1.35;;
70444;SDS011;57902;49.638;11.070;2022-10-16T14:22:40;6.82;;;1.55;;
70444;SDS011;57902;49.638;11.070;2022-10-16T14:38:28;4.47;;;1.77;;
70444;SDS011;57902;49.638;11.070;2022-10-16T14:40:56;3.65;;;1.50;;
70444;SDS011;57902;49.638;11.070;2022-10-16T14:43:30;5.75;;;1.70;;
70444;SDS011;57902;49.638;11.070;2022-10-16T14:45:57;4.75;;;1.45;;
70444;SDS011;57902;49.638;11.070;2022-10-16T14:48:24;5.40;;;1.40;;
70444;SDS011;57902;49.638;11.070;2022-10-16T14:50:51;9.13;;;1.52;;
70444;SDS011;57902;49.638;11.070;2022-10-16T14:53:17;4.68;;;1.50;;
70444;SDS011;57902;49.638;11.070;2022-10-16T14:55:44;4.60;;;1.73;;
70444;SDS011;57902;49.638;11.070;2022-10-16T14:58:15;8.70;;;2.00;;
70444;SDS011;57902;49.638;11.070;2022-10-16T15:00:43;5.97;;;1.65;;
70444;SDS011;57902;49.638;11.070;2022-10-16T15:03:09;6.25;;;2.20;;
70444;SDS011;57902;49.638;11.070;2022-10-16T15:05:36;4.20;;;1.70;;
70444;SDS011;57902;49.638;11.070;2022-10-16T15:08:02;6.43;;;1.60;;
70444;SDS011;57902;49.638;11.070;2022-10-16T15:10:31;9.43;;;1.60;;
70444;SDS011;57902;49.638;11.070;2022-10-16T15:13:03;10.77;;;2.03;;
70444;SDS011;57902;49.638;11.070;2022-10-16T15:18:01;8.65;;;1.83;;
70444;SDS011;57902;49.638;11.070;2022-10-16T15:20:30;5.05;;;1.90;;
70444;SDS011;57902;49.638;11.070;2022-10-16T15:23:00;7.28;;;1.98;;
70444;SDS011;57902;49.638;11.070;2022-10-16T15:28:02;11.60;;;4.07;;
70444;SDS011;57902;49.638;11.070;2022-10-16T15:30:29;5.38;;;1.90;;
70444;SDS011;57902;49.638;11.070;2022-10-16T15:32:56;5.85;;;2.30;;
70444;SDS011;57902;49.638;11.070;2022-10-16T15:35:23;11.50;;;2.20;;
70444;SDS011;57902;49.638;11.070;2022-10-16T15:37:49;3.17;;;1.65;;
70444;SDS011;57902;49.638;11.070;2022-10-16T15:40:17;3.78;;;1.42;;
70444;SDS011;57902;49.638;11.070;2022-10-16T15:42:44;3.08;;;1.52;;
70444;SDS011;57902;49.638;11.070;2022-10-16T15:45:11;9.75;;;2.28;;
70444;SDS011;57902;49.638;11.070;2022-10-16T15:47:39;6.60;;;2.30;;
70444;SDS011;57902;49.638;11.070;2022-10-16T15:50:11;13.30;;;1.92;;
70444;SDS011;57902;49.638;11.070;2022-10-16T15:52:39;4.88;;;2.10;;
70444;SDS011;57902;49.638;11.070;2022-10-16T15:55:10;9.73;;;1.90;;
70444;SDS011;57902;49.638;11.070;2022-10-16T15:57:37;6.40;;;1.80;;
70444;SDS011;57902;49.638;11.070;2022-10-16T16:00:07;8.60;;;2.15;;
70444;SDS011;57902;49.638;11.070;2022-10-16T16:02:36;9.75;;;2.53;;
70444;SDS011;57902;49.638;11.070;2022-10-16T16:05:02;6.80;;;2.00;;
70444;SDS011;57902;49.638;11.070;2022-10-16T16:07:33;6.47;;;2.30;;
70444;SDS011;57902;49.638;11.070;2022-10-16T16:10:00;6.82;;;2.00;;
70444;SDS011;57902;49.638;11.070;2022-10-16T16:12:27;7.07;;;2.38;;
70444;SDS011;57902;49.638;11.070;2022-10-16T16:14:54;7.68;;;2.15;;
70444;SDS011;57902;49.638;11.070;2022-10-16T16:17:21;7.78;;;1.90;;
70444;SDS011;57902;49.638;11.070;2022-10-16T16:19:47;8.25;;;1.90;;
70444;SDS011;57902;49.638;11.070;2022-10-16T16:22:13;8.15;;;1.55;;
70444;SDS011;57902;49.638;11.070;2022-10-16T16:24:40;7.63;;;1.90;;
70444;SDS011;57902;49.638;11.070;2022-10-16T16:27:07;9.45;;;1.70;;
70444;SDS011;57902;49.638;11.070;2022-10-16T16:29:35;5.78;;;1.77;;
70444;SDS011;57902;49.638;11.070;2022-10-16T16:32:02;7.35;;;1.73;;
70444;SDS011;57902;49.638;11.070;2022-10-16T16:34:29;11.70;;;2.53;;
70444;SDS011;57902;49.638;11.070;2022-10-16T16:36:56;7.95;;;3.00;;
70444;SDS011;57902;49.638;11.070;2022-10-16T16:39:22;5.80;;;2.35;;
70444;SDS011;57902;49.638;11.070;2022-10-16T16:41:50;9.38;;;3.00;;
70444;SDS011;57902;49.638;11.070;2022-10-16T16:44:16;11.73;;;3.67;;
70444;SDS011;57902;49.638;11.070;2022-10-16T16:46:43;11.02;;;4.18;;
70444;SDS011;57902;49.638;11.070;2022-10-16T16:49:11;10.52;;;3.10;;
70444;SDS011;57902;49.638;11.070;2022-10-16T16:54:06;11.93;;;3.75;;
70444;SDS011;57902;49.638;11.070;2022-10-16T16:56:33;10.90;;;4.43;;
70444;SDS011;57902;49.638;11.070;2022-10-16T16:59:01;11.95;;;5.50;;
70444;SDS011;57902;49.638;11.070;2022-10-16T17:01:27;9.45;;;4.07;;
70444;SDS011;57902;49.638;11.070;2022-10-16T17:03:55;6.20;;;2.72;;